Time;durP1;ratioP1;P1;durP2;ratioP2;P2;SDS_P1;SDS_P2;PMS_P1;PMS_P2;Temp;Humidity;BMP_temperature;BMP_pressure;BME280_temperature;BME280_humidity;BME280_pressure;Samples;Min_cycle;Max_cycle;Signal;HPM_P1;HPM_P2
2024/01/01 00:00:48;;;;;;;22.58;11.55;;;;;;;-13.78;85.50;101183.47;10444563;28;20045;-69
2024/01/01 00:05:53;;;;;;;22.17;11.32;;;;;;;-13.82;85.67;101191.72;10445351;28;20049;-70
2024/01/01 00:10:56;;;;;;;18.85;10.57;;;;;;;-13.88;85.22;101192.13;10445416;28;20425;-69
2024/01/01 00:16:00;;;;;;;22.38;12.02;;;;;;;-13.81;85.55;101194.25;10444996;28;20416;-70
2024/01/01 00:21:02;;;;;;;19.55;11.43;;;;;;;-13.79;85.59;101202.88;10445305;28;20053;-69
2024/01/01 00:26:05;;;;;;;15.98;9.25;;;;;;;-13.41;85.40;101207.16;10444524;28;20041;-71
2024/01/01 00:31:08;;;;;;;15.73;9.10;;;;;;;-13.12;86.35;101203.16;10441834;28;20037;-70
2024/01/01 00:36:11;;;;;;;15.52;8.40;;;;;;;-13.09;85.17;101208.19;10444364;28;20420;-69
2024/01/01 00:41:15;;;;;;;14.48;8.27;;;;;;;-13.14;85.36;101213.00;10444231;28;20049;-70
2024/01/01 00:46:17;;;;;;;14.45;8.68;;;;;;;-13.36;85.48;101220.88;10443592;28;20425;-69
2024/01/01 00:51:20;;;;;;;14.98;9.10;;;;;;;-13.54;84.22;101230.09;10443665;28;20513;-69
2024/01/01 00:56:22;;;;;;;15.65;8.55;;;;;;;-13.89;83.94;101236.13;10443564;28;20042;-70
2024/01/01 01:01:25;;;;;;;18.33;9.27;;;;;;;-14.09;84.28;101228.78;10443819;28;20046;-70
2024/01/01 01:06:28;;;;;;;16.20;8.50;;;;;;;-14.22;84.74;101235.91;10443254;28;20056;-70
2024/01/01 01:11:30;;;;;;;17.67;7.82;;;;;;;-14.08;85.05;101223.41;10442331;28;20125;-71
2024/01/01 01:16:33;;;;;;;14.32;7.43;;;;;;;-13.89;85.34;101232.66;10451968;28;20046;-70
2024/01/01 01:21:35;;;;;;;15.05;8.13;;;;;;;-13.74;85.33;101236.84;10444942;28;20049;-70
2024/01/01 01:26:37;;;;;;;17.08;9.10;;;;;;;-13.83;84.97;101246.25;10436454;28;20038;-69
2024/01/01 01:31:45;;;;;;;18.67;9.30;;;;;;;-14.18;84.48;101243.50;10451323;28;20084;-69
2024/01/01 01:36:48;;;;;;;16.88;8.93;;;;;;;-14.38;83.68;101247.50;10449869;28;20037;-70
2024/01/01 01:41:50;;;;;;;15.73;9.05;;;;;;;-14.53;83.36;101245.13;10439540;28;20084;-70
2024/01/01 01:46:53;;;;;;;16.60;8.88;;;;;;;-14.80;82.90;101251.31;10439903;28;20046;-69
2024/01/01 01:51:56;;;;;;;16.40;7.57;;;;;;;-14.97;83.82;101257.72;10437854;28;20042;-70
2024/01/01 01:56:59;;;;;;;13.95;8.07;;;;;;;-15.16;83.75;101270.41;10406532;28;20412;-70
2024/01/01 02:02:02;;;;;;;15.13;8.27;;;;;;;-15.14;84.10;101273.78;10434725;28;20064;-69
2024/01/01 02:07:04;;;;;;;15.30;7.35;;;;;;;-15.08;83.97;101268.13;10447177;28;20501;-69
2024/01/01 02:12:10;;;;;;;9.88;5.90;;;;;;;-14.77;84.67;101279.22;10445791;28;20501;-70
2024/01/01 02:17:13;;;;;;;13.77;7.85;;;;;;;-14.83;84.53;101284.91;10451800;28;20041;-70
2024/01/01 02:22:16;;;;;;;8.85;5.53;;;;;;;-15.02;83.56;101278.25;10447191;28;20041;-69
2024/01/01 02:27:18;;;;;;;10.30;5.88;;;;;;;-14.89;83.35;101283.53;10447694;28;20033;-70
2024/01/01 02:32:21;;;;;;;10.20;5.65;;;;;;;-14.66;83.89;101284.63;10447831;28;20041;-70
2024/01/01 02:37:23;;;;;;;10.10;5.38;;;;;;;-14.52;83.92;101295.06;10447685;28;20040;-70
2024/01/01 02:42:27;;;;;;;10.48;5.00;;;;;;;-14.44;84.04;101289.28;10430951;28;20046;-70
2024/01/01 02:47:29;;;;;;;7.40;5.15;;;;;;;-14.58;83.85;101292.84;10445885;28;20049;-71
2024/01/01 02:52:32;;;;;;;10.82;5.28;;;;;;;-14.85;83.11;101292.06;10449443;28;20040;-70
2024/01/01 02:57:34;;;;;;;9.50;5.15;;;;;;;-14.67;83.39;101290.84;10435758;28;20483;-70
2024/01/01 03:02:40;;;;;;;10.10;5.80;;;;;;;-15.03;83.38;101291.50;10444743;28;20426;-70
2024/01/01 03:07:42;;;;;;;9.85;5.63;;;;;;;-15.12;82.47;101292.94;10437877;28;20043;-70
2024/01/01 03:12:44;;;;;;;11.30;5.63;;;;;;;-14.91;82.57;101301.25;10446442;28;20412;-70
2024/01/01 03:17:47;;;;;;;9.75;3.97;;;;;;;-14.25;83.70;101305.47;10437817;28;20034;-70
2024/01/01 03:22:50;;;;;;;4.68;2.90;;;;;;;-13.64;84.50;101310.91;10426479;28;20053;-69
2024/01/01 03:27:55;;;;;;;3.97;2.10;;;;;;;-13.02;85.45;101313.38;10443805;28;20041;-71
2024/01/01 03:32:57;;;;;;;4.20;2.60;;;;;;;-12.82;84.79;101300.41;10446580;28;20041;-69
2024/01/01 03:38:00;;;;;;;4.25;2.42;;;;;;;-12.70;84.71;101319.75;10442745;28;20033;-70
2024/01/01 03:43:03;;;;;;;2.33;1.83;;;;;;;-12.52;85.02;101310.44;10445063;28;20915;-69
2024/01/01 03:48:06;;;;;;;3.58;2.30;;;;;;;-12.51;84.35;101330.63;10433206;28;20048;-70
2024/01/01 03:53:09;;;;;;;2.95;2.20;;;;;;;-12.49;83.90;101323.47;10446028;28;20048;-69
2024/01/01 03:58:11;;;;;;;2.60;1.70;;;;;;;-12.55;83.48;101318.63;10439411;28;20417;-70
2024/01/01 04:03:14;;;;;;;2.47;1.75;;;;;;;-12.49;84.53;101314.69;10445065;28;20037;-71
2024/01/01 04:08:16;;;;;;;1.55;1.10;;;;;;;-12.42;84.39;101317.69;10435611;28;20136;-69
2024/01/01 04:13:19;;;;;;;3.83;1.80;;;;;;;-12.56;83.29;101316.09;10425069;28;20037;-70
2024/01/01 04:18:22;;;;;;;3.22;1.83;;;;;;;-12.60;84.23;101315.47;10440682;28;20045;-69
2024/01/01 04:23:24;;;;;;;3.60;1.92;;;;;;;-12.72;84.00;101320.84;10441488;28;20049;-70
2024/01/01 04:28:27;;;;;;;2.13;1.77;;;;;;;-12.80;83.94;101316.13;10441975;28;20045;-69
2024/01/01 04:33:29;;;;;;;2.30;1.83;;;;;;;-12.72;84.28;101310.28;10443301;28;20057;-70
2024/01/01 04:38:31;;;;;;;2.30;1.70;;;;;;;-12.85;83.94;101324.38;10439357;28;20037;-69
2024/01/01 04:43:33;;;;;;;1.77;1.40;;;;;;;-12.83;84.08;101329.59;10443955;28;20056;-70
2024/01/01 04:48:36;;;;;;;2.58;1.73;;;;;;;-12.92;83.72;101340.81;10442332;28;20053;-69
2024/01/01 04:53:39;;;;;;;4.78;1.90;;;;;;;-12.99;83.58;101351.00;10435352;28;20048;-69
2024/01/01 04:58:42;;;;;;;1.83;1.50;;;;;;;-12.92;83.55;101357.50;10443592;28;20049;-69
2024/01/01 05:03:47;;;;;;;2.40;1.35;;;;;;;-12.97;83.47;101359.66;10441711;28;20044;-69
2024/01/01 05:08:50;;;;;;;1.90;1.60;;;;;;;-12.99;82.52;101360.72;10429079;28;20410;-69
2024/01/01 05:13:52;;;;;;;2.38;1.50;;;;;;;-13.12;83.63;101368.69;10428023;28;20033;-71
2024/01/01 05:18:54;;;;;;;2.67;1.52;;;;;;;-13.15;83.36;101361.84;10423362;28;20049;-69
2024/01/01 05:23:57;;;;;;;1.88;1.50;;;;;;;-13.14;83.33;101373.25;10425812;28;20457;-69
2024/01/01 05:29:00;;;;;;;3.42;1.70;;;;;;;-13.24;83.89;101372.22;10432155;28;20485;-69
2024/01/01 05:34:03;;;;;;;1.88;1.42;;;;;;;-13.24;84.06;101383.63;10432422;28;20034;-69
2024/01/01 05:39:06;;;;;;;2.83;1.73;;;;;;;-13.34;84.16;101390.53;10429876;28;20448;-69
2024/01/01 05:44:09;;;;;;;3.05;1.80;;;;;;;-13.37;83.49;101395.19;10437594;28;20038;-69
2024/01/01 05:49:11;;;;;;;3.72;1.67;;;;;;;-13.44;83.54;101405.34;10430018;28;20045;-69
2024/01/01 05:54:14;;;;;;;2.05;1.58;;;;;;;-13.42;83.63;101406.91;10442200;28;20037;-69
2024/01/01 05:59:17;;;;;;;2.97;1.90;;;;;;;-13.63;84.30;101404.94;10437175;28;20042;-69
2024/01/01 06:04:19;;;;;;;3.65;1.70;;;;;;;-13.67;85.17;101406.97;10410467;28;20038;-69
2024/01/01 06:09:24;;;;;;;2.72;1.75;;;;;;;-13.74;84.87;101414.44;10448611;28;20072;-69
2024/01/01 06:14:27;;;;;;;4.88;1.80;;;;;;;-13.81;84.73;101417.59;10437983;28;20034;-69
2024/01/01 06:19:30;;;;;;;2.60;1.65;;;;;;;-13.86;85.50;101414.44;10422911;28;20037;-70
2024/01/01 06:24:34;;;;;;;2.88;1.60;;;;;;;-13.88;85.94;101413.69;10447976;28;20409;-70
2024/01/01 06:29:37;;;;;;;3.30;1.83;;;;;;;-14.00;85.65;101436.50;10441116;28;20040;-71
2024/01/01 06:34:39;;;;;;;2.10;1.65;;;;;;;-13.92;85.94;101431.53;10428845;28;20041;-70
2024/01/01 06:39:43;;;;;;;2.75;1.80;;;;;;;-14.03;86.18;101429.63;10444459;28;20041;-69
2024/01/01 06:44:45;;;;;;;2.47;1.80;;;;;;;-13.96;85.94;101421.28;10444822;28;20048;-69
2024/01/01 06:49:47;;;;;;;2.65;2.08;;;;;;;-13.96;85.20;101426.56;10440239;28;20071;-71
2024/01/01 06:54:50;;;;;;;3.00;1.70;;;;;;;-13.94;85.76;101435.22;10435966;28;20050;-69
2024/01/01 06:59:54;;;;;;;2.38;1.60;;;;;;;-14.08;85.72;101444.91;10448332;28;20045;-71
2024/01/01 07:04:56;;;;;;;3.40;1.88;;;;;;;-13.97;86.05;101433.63;10440907;28;20033;-70
2024/01/01 07:10:00;;;;;;;2.58;1.80;;;;;;;-13.89;85.57;101454.19;10444838;28;20056;-70
2024/01/01 07:15:03;;;;;;;4.13;1.80;;;;;;;-13.80;85.52;101453.59;10420229;28;20052;-70
2024/01/01 07:20:10;;;;;;;2.67;1.60;;;;;;;-13.93;85.47;101458.84;10443216;28;20060;-70
2024/01/01 07:25:12;;;;;;;3.38;1.80;;;;;;;-13.80;85.76;101459.72;10444864;28;20758;-71
2024/01/01 07:30:15;;;;;;;2.42;1.58;;;;;;;-13.79;86.07;101458.75;10434258;28;20065;-69
2024/01/01 07:35:18;;;;;;;2.67;1.90;;;;;;;-13.88;85.96;101474.34;10406697;28;20033;-70
2024/01/01 07:40:22;;;;;;;2.22;1.55;;;;;;;-13.86;86.06;101475.13;10421316;28;20433;-70
2024/01/01 07:45:24;;;;;;;2.75;1.73;;;;;;;-13.67;85.21;101480.00;10409350;28;20437;-70
2024/01/01 07:50:28;;;;;;;3.40;1.95;;;;;;;-13.65;85.72;101478.09;10419304;28;20033;-69
2024/01/01 07:55:31;;;;;;;4.25;1.92;;;;;;;-13.44;85.26;101495.91;10436506;28;20041;-69
2024/01/01 08:00:35;;;;;;;2.88;1.80;;;;;;;-13.43;84.53;101489.69;10432340;28;20034;-70
2024/01/01 08:05:37;;;;;;;2.20;1.50;;;;;;;-13.08;81.53;101494.28;10441222;28;20041;-70
2024/01/01 08:10:43;;;;;;;3.63;1.67;;;;;;;-13.22;81.75;101494.44;10438233;28;20052;-71
2024/01/01 08:15:46;;;;;;;2.60;1.67;;;;;;;-13.05;80.78;101499.34;10444317;28;20036;-70
2024/01/01 08:20:49;;;;;;;3.50;2.17;;;;;;;-12.10;78.51;101495.94;10444386;28;20049;-70
2024/01/01 08:25:51;;;;;;;2.53;1.70;;;;;;;-11.22;75.32;101498.06;10427245;28;20041;-70
2024/01/01 08:30:54;;;;;;;3.50;2.10;;;;;;;-10.87;71.12;101500.56;10443507;28;20045;-71
2024/01/01 08:35:56;;;;;;;3.53;2.10;;;;;;;-11.16;70.33;101498.41;10441114;28;20413;-69
2024/01/01 08:40:59;;;;;;;3.08;1.80;;;;;;;-12.64;72.36;101509.63;10421557;28;20089;-70
2024/01/01 08:46:05;;;;;;;3.25;1.98;;;;;;;-13.20;75.17;101516.28;10440726;28;20037;-70
2024/01/01 08:51:09;;;;;;;3.33;1.80;;;;;;;-13.52;75.48;101513.25;10439791;28;20033;-69
2024/01/01 08:56:11;;;;;;;3.95;2.05;;;;;;;-13.66;76.23;101523.91;10426601;28;20037;-69
2024/01/01 09:01:14;;;;;;;3.22;1.98;;;;;;;-13.70;76.78;101536.47;10440174;28;20531;-71
2024/01/01 09:06:17;;;;;;;3.97;2.17;;;;;;;-13.62;77.18;101530.66;10450904;28;20509;-70
2024/01/01 09:11:23;;;;;;;4.05;2.00;;;;;;;-13.71;77.40;101546.16;10419488;28;20041;-70
2024/01/01 09:16:29;;;;;;;4.47;2.03;;;;;;;-13.95;77.75;101537.22;10433159;28;20045;-71
2024/01/01 09:21:32;;;;;;;2.30;1.95;;;;;;;-14.13;78.35;101551.63;10432310;28;20041;-69
2024/01/01 09:26:34;;;;;;;3.45;1.83;;;;;;;-14.24;78.00;101549.69;10430559;28;20045;-71
2024/01/01 09:31:37;;;;;;;2.58;1.52;;;;;;;-14.12;78.50;101562.06;10413008;28;20516;-69
2024/01/01 09:36:41;;;;;;;3.53;2.10;;;;;;;-14.11;78.95;101547.94;10439323;28;20034;-70
2024/01/01 09:41:44;;;;;;;3.20;1.85;;;;;;;-14.07;78.27;101554.69;10432348;28;20072;-71
2024/01/01 09:46:46;;;;;;;3.67;2.00;;;;;;;-14.02;78.09;101559.69;10437761;28;20433;-69
2024/01/01 09:51:49;;;;;;;3.88;2.00;;;;;;;-14.11;78.30;101562.91;10445619;28;20029;-70
2024/01/01 09:56:51;;;;;;;3.10;1.88;;;;;;;-14.15;78.34;101577.25;10448966;28;20037;-70
2024/01/01 10:02:04;;;;;;;2.63;1.73;;;;;;;-14.51;78.93;101567.31;10437819;28;20037;-71
2024/01/01 10:07:07;;;;;;;2.20;1.35;;;;;;;-14.51;78.41;101562.03;10447758;28;20537;-70
2024/01/01 10:12:09;;;;;;;2.25;1.63;;;;;;;-14.52;79.38;101561.19;10449821;28;20556;-69
2024/01/01 10:17:13;;;;;;;2.95;1.98;;;;;;;-14.55;79.55;101579.84;10447568;28;20417;-69
2024/01/01 10:22:18;;;;;;;2.42;1.70;;;;;;;-14.72;78.52;101577.41;10445631;28;20030;-69
2024/01/01 10:27:20;;;;;;;1.55;1.20;;;;;;;-14.76;79.10;101566.19;10436628;28;20036;-70
2024/01/01 10:32:23;;;;;;;2.58;1.48;;;;;;;-14.70;79.14;101572.91;10447178;28;20034;-69
2024/01/01 10:37:26;;;;;;;2.03;1.20;;;;;;;-14.84;78.59;101579.03;10428649;28;20045;-69
2024/01/01 10:42:33;;;;;;;3.80;1.77;;;;;;;-14.69;79.05;101572.81;10432935;28;20052;-69
2024/01/01 10:47:35;;;;;;;2.75;1.52;;;;;;;-14.59;78.63;101574.84;10445363;28;20049;-69
2024/01/01 10:52:47;;;;;;;14.98;6.68;;;;;;;-14.62;78.88;101584.63;10446483;28;20041;-69
2024/01/01 10:58:00;;;;;;;2.55;1.63;;;;;;;-14.75;78.17;101593.38;10441570;28;20049;-68
2024/01/01 11:03:03;;;;;;;3.22;1.67;;;;;;;-14.84;78.30;101588.72;10441343;28;20033;-68
2024/01/01 11:08:07;;;;;;;2.65;1.50;;;;;;;-14.86;78.85;101593.22;10437980;28;20060;-69
2024/01/01 11:13:33;;;;;;;4.50;2.00;;;;;;;-15.12;78.68;101605.34;10406868;28;20034;-69
2024/01/01 11:18:37;;;;;;;3.28;1.90;;;;;;;-15.51;78.73;101600.66;10411356;28;20052;-69
2024/01/01 11:23:40;;;;;;;3.65;1.73;;;;;;;-15.58;78.99;101626.50;10433097;28;20576;-69
2024/01/01 11:28:43;;;;;;;2.53;1.60;;;;;;;-15.72;79.12;101608.91;10446742;28;20037;-70
2024/01/01 11:34:07;;;;;;;2.55;1.75;;;;;;;-15.96;80.10;101612.97;10438946;28;20129;-70
2024/01/01 11:39:10;;;;;;;2.97;1.50;;;;;;;-16.05;79.16;101616.09;10446679;28;20038;-69
2024/01/01 11:44:14;;;;;;;3.20;1.88;;;;;;;-16.03;79.41;101615.06;10444130;28;20041;-69
2024/01/01 11:49:16;;;;;;;2.42;1.42;;;;;;;-16.17;79.68;101623.72;10424572;28;20496;-69
2024/01/01 11:54:20;;;;;;;3.20;2.05;;;;;;;-16.21;79.57;101624.84;10410134;28;20630;-70
2024/01/01 11:59:24;;;;;;;4.65;1.88;;;;;;;-16.10;79.08;101629.50;10408999;28;20137;-69
2024/01/01 12:04:26;;;;;;;2.72;1.40;;;;;;;-16.14;78.79;101612.19;10412920;28;20045;-70
2024/01/01 12:09:29;;;;;;;4.05;1.98;;;;;;;-16.05;79.25;101605.59;10442445;28;20041;-69
2024/01/01 12:14:32;;;;;;;4.10;1.48;;;;;;;-16.19;78.86;101620.34;10438156;28;20050;-69
2024/01/01 12:19:34;;;;;;;2.75;1.50;;;;;;;-16.21;78.32;101614.34;10439777;28;20029;-69
2024/01/01 12:24:37;;;;;;;1.83;0.93;;;;;;;-16.38;77.73;101614.44;10441252;28;20052;-68
2024/01/01 12:29:49;;;;;;;24.67;17.98;;;;;;;-16.36;77.89;101619.59;10431994;28;20136;-68
2024/01/01 12:34:53;;;;;;;1.35;1.10;;;;;;;-16.46;78.19;101625.38;10437844;28;20044;-67
2024/01/01 12:39:55;;;;;;;2.70;1.33;;;;;;;-16.47;78.23;101635.97;10439965;28;20033;-67
2024/01/01 12:44:58;;;;;;;1.75;1.00;;;;;;;-16.47;77.89;101635.97;10438357;28;20052;-69
2024/01/01 12:50:00;;;;;;;0.63;0.63;;;;;;;-16.59;78.27;101634.84;10416894;28;20044;-67
2024/01/01 12:55:03;;;;;;;1.60;0.70;;;;;;;-16.58;78.19;101646.19;10437260;28;20041;-67
2024/01/01 13:00:07;;;;;;;1.90;1.40;;;;;;;-16.68;77.57;101645.00;10443233;28;20057;-67
2024/01/01 13:05:09;;;;;;;3.40;1.10;;;;;;;-16.83;77.60;101655.41;10415370;28;20041;-68
2024/01/01 13:10:12;;;;;;;4.35;1.27;;;;;;;-16.95;77.85;101666.53;10420386;28;20041;-68
2024/01/01 13:15:14;;;;;;;0.90;0.80;;;;;;;-17.03;77.68;101668.69;10449031;28;20042;-69
2024/01/01 13:20:16;;;;;;;1.85;1.23;;;;;;;-17.29;77.29;101669.22;10451665;28;20048;-66
2024/01/01 13:25:21;;;;;;;1.40;0.60;;;;;;;-17.31;77.88;101665.81;10451285;28;20052;-69
2024/01/01 13:30:24;;;;;;;2.17;1.08;;;;;;;-17.34;77.58;101673.84;10451441;28;20053;-67
2024/01/01 13:35:26;;;;;;;3.20;0.90;;;;;;;-17.33;77.76;101670.28;10448612;28;20064;-67
2024/01/01 13:40:29;;;;;;;3.08;1.40;;;;;;;-17.34;77.74;101685.19;10450976;28;20045;-65
2024/01/01 13:45:31;;;;;;;2.85;1.35;;;;;;;-17.45;77.15;101680.47;10443595;28;20061;-68
2024/01/01 13:50:34;;;;;;;0.55;0.55;;;;;;;-17.41;76.85;101676.75;10447430;28;20068;-69
2024/01/01 13:55:36;;;;;;;3.63;1.27;;;;;;;-17.60;76.29;101694.34;10435076;28;20038;-69
2024/01/01 14:00:40;;;;;;;1.30;0.73;;;;;;;-17.64;76.55;101703.28;10440971;28;20133;-68
2024/01/01 14:05:44;;;;;;;3.00;1.38;;;;;;;-17.70;76.31;101704.47;10420063;28;20045;-70
2024/01/01 14:10:46;;;;;;;1.27;0.95;;;;;;;-17.63;76.03;101710.22;10443619;28;20501;-69
2024/01/01 14:15:48;;;;;;;3.25;1.27;;;;;;;-17.64;75.64;101726.03;10444331;28;20041;-69
2024/01/01 14:20:51;;;;;;;2.80;1.20;;;;;;;-17.72;75.29;101713.31;10431092;28;20037;-69
2024/01/01 14:25:53;;;;;;;1.35;1.02;;;;;;;-17.81;75.53;101712.00;10441029;28;20056;-68
2024/01/01 14:30:56;;;;;;;7.00;1.33;;;;;;;-17.80;75.45;101707.59;10451565;28;20425;-68
2024/01/01 14:35:58;;;;;;;1.55;1.30;;;;;;;-17.69;75.82;101726.28;10449980;28;20029;-68
2024/01/01 14:41:02;;;;;;;4.15;1.17;;;;;;;-17.81;75.08;101745.22;10447004;28;20060;-69
2024/01/01 14:46:04;;;;;;;2.60;1.67;;;;;;;-17.85;74.98;101744.50;10449175;28;20580;-68
2024/01/01 14:51:06;;;;;;;0.17;0.17;;;;;;;-17.81;75.29;101734.72;10450027;28;20061;-68
2024/01/01 14:56:09;;;;;;;2.35;1.10;;;;;;;-17.80;75.15;101739.03;10448739;28;20041;-68
2024/01/01 15:01:19;;;;;;;4.15;1.60;;;;;;;-17.76;75.95;101743.22;10449355;28;20045;-67
2024/01/01 15:06:22;;;;;;;3.95;2.22;;;;;;;-17.66;75.47;101739.22;10431072;28;20045;-66
2024/01/01 15:11:25;;;;;;;3.67;1.70;;;;;;;-17.84;75.61;101740.13;10429400;28;20048;-70
2024/01/01 15:16:27;;;;;;;1.90;1.38;;;;;;;-17.87;75.46;101742.84;10428342;28;20425;-70
2024/01/01 15:21:30;;;;;;;3.90;1.77;;;;;;;-17.87;75.25;101748.09;10426975;28;20041;-71
2024/01/01 15:26:33;;;;;;;2.78;1.73;;;;;;;-17.92;75.62;101747.47;10426597;28;20044;-71
2024/01/01 15:31:36;;;;;;;1.63;1.15;;;;;;;-17.92;75.30;101750.94;10442287;28;20038;-73
2024/01/01 15:36:44;;;;;;;3.95;2.05;;;;;;;-17.92;75.14;101729.13;10442886;28;20413;-69
2024/01/01 15:41:47;;;;;;;3.93;1.23;;;;;;;-17.84;75.25;101725.25;10433896;28;20041;-70
2024/01/01 15:46:50;;;;;;;2.80;1.63;;;;;;;-17.83;75.26;101718.22;10443135;28;20053;-69
2024/01/01 15:51:53;;;;;;;5.45;2.40;;;;;;;-17.91;75.50;101729.06;10424244;28;20436;-69
2024/01/01 15:56:55;;;;;;;3.25;1.27;;;;;;;-17.96;76.15;101730.22;10414886;28;20033;-68
2024/01/01 16:01:58;;;;;;;2.47;1.35;;;;;;;-17.97;76.35;101746.84;10418846;28;20498;-68
2024/01/01 16:07:00;;;;;;;0.77;0.75;;;;;;;-17.97;76.22;101737.22;10443340;28;20453;-69
2024/01/01 16:12:05;;;;;;;1.80;1.17;;;;;;;-17.93;76.43;101740.53;10430357;28;20041;-67
2024/01/01 16:17:09;;;;;;;1.05;0.60;;;;;;;-17.86;76.06;101741.97;10433868;28;20044;-68
2024/01/01 16:22:13;;;;;;;1.98;1.10;;;;;;;-17.83;75.43;101757.53;10422451;28;20040;-67
2024/01/01 16:27:17;;;;;;;2.10;0.85;;;;;;;-17.81;76.01;101759.16;10439478;28;20041;-69
2024/01/01 16:32:19;;;;;;;1.95;0.63;;;;;;;-17.75;75.86;101764.09;10411031;28;20037;-69
2024/01/01 16:37:24;;;;;;;2.10;1.17;;;;;;;-17.74;75.80;101778.06;10433435;28;20037;-67
2024/01/01 16:42:26;;;;;;;2.40;1.55;;;;;;;-17.78;75.98;101790.47;10441148;28;20440;-68
2024/01/01 16:47:28;;;;;;;2.33;1.27;;;;;;;-17.70;76.00;101784.84;10439828;28;20045;-70
2024/01/01 16:52:31;;;;;;;3.03;1.50;;;;;;;-17.72;76.48;101781.44;10442370;28;20041;-67
2024/01/01 16:57:35;;;;;;;1.17;0.98;;;;;;;-17.69;75.77;101781.34;10431673;28;20225;-68
2024/01/01 17:02:38;;;;;;;3.22;0.95;;;;;;;-17.73;76.09;101792.84;10421366;28;20128;-68
2024/01/01 17:07:41;;;;;;;2.88;1.80;;;;;;;-17.73;77.02;101790.25;10437846;28;20399;-71
2024/01/01 17:12:45;;;;;;;2.75;1.63;;;;;;;-17.76;76.94;101793.00;10437395;28;20041;-69
2024/01/01 17:17:47;;;;;;;4.22;2.17;;;;;;;-17.78;76.80;101802.72;10435955;28;20416;-69
2024/01/01 17:22:50;;;;;;;4.45;2.35;;;;;;;-17.81;77.56;101806.34;10427480;28;20049;-68
2024/01/01 17:27:52;;;;;;;6.32;4.05;;;;;;;-17.90;77.13;101801.50;10427634;28;20041;-68
2024/01/01 17:32:55;;;;;;;3.42;2.25;;;;;;;-18.00;77.60;101806.34;10419612;28;20042;-70
2024/01/01 17:37:58;;;;;;;3.63;2.00;;;;;;;-18.11;77.56;101802.50;10427430;28;20045;-70
2024/01/01 17:43:01;;;;;;;3.47;2.55;;;;;;;-18.15;77.65;101830.59;10427219;28;20501;-71
2024/01/01 17:48:06;;;;;;;3.85;2.83;;;;;;;-18.23;78.05;101847.56;10436794;28;20042;-71
2024/01/01 17:53:09;;;;;;;3.13;2.20;;;;;;;-18.36;78.86;101824.56;10441050;28;20037;-70
2024/01/01 17:58:11;;;;;;;4.35;2.15;;;;;;;-18.32;78.52;101843.59;10447082;28;20048;-72
2024/01/01 18:03:13;;;;;;;4.43;1.95;;;;;;;-18.32;79.74;101844.44;10449676;28;20045;-71
2024/01/01 18:08:16;;;;;;;4.38;2.40;;;;;;;-18.28;78.93;101837.28;10450350;28;20409;-71
2024/01/01 18:13:19;;;;;;;4.32;2.08;;;;;;;-18.25;79.26;101834.53;10450065;28;20048;-71
2024/01/01 18:18:21;;;;;;;3.28;2.00;;;;;;;-18.26;78.74;101837.22;10449147;28;20034;-73
2024/01/01 18:23:23;;;;;;;4.55;2.80;;;;;;;-18.21;79.54;101845.75;10449143;28;20487;-72
2024/01/01 18:28:29;;;;;;;3.85;2.30;;;;;;;-18.13;78.85;101854.09;10448826;28;20044;-72
2024/01/01 18:33:33;;;;;;;4.53;2.05;;;;;;;-18.18;79.06;101840.38;10448743;28;20420;-72
2024/01/01 18:38:35;;;;;;;4.18;2.50;;;;;;;-18.21;78.91;101833.50;10447508;28;20045;-72
2024/01/01 18:43:40;;;;;;;5.30;2.35;;;;;;;-18.18;79.12;101838.59;10446066;28;20040;-71
2024/01/01 18:48:42;;;;;;;4.07;1.73;;;;;;;-18.19;79.52;101839.53;10446232;28;20540;-72
2024/01/01 18:53:44;;;;;;;3.00;1.90;;;;;;;-18.22;78.67;101844.03;10447670;28;20041;-73
2024/01/01 18:58:49;;;;;;;2.72;1.83;;;;;;;-18.18;78.73;101843.84;10447693;28;20041;-72
2024/01/01 19:03:51;;;;;;;3.33;1.60;;;;;;;-18.18;78.43;101832.50;10447559;28;20624;-72
2024/01/01 19:08:54;;;;;;;2.72;1.58;;;;;;;-18.16;78.63;101836.75;10445774;28;20413;-72
2024/01/01 19:13:56;;;;;;;3.60;1.83;;;;;;;-18.20;78.33;101840.44;10446653;28;20041;-72
2024/01/01 19:18:59;;;;;;;1.95;1.33;;;;;;;-18.19;77.78;101844.75;10447445;28;20048;-72
2024/01/01 19:24:07;;;;;;;2.22;1.40;;;;;;;-18.18;77.67;101845.59;10446821;28;20045;-72
2024/01/01 19:29:10;;;;;;;2.85;1.52;;;;;;;-18.23;77.83;101843.16;10446429;28;20077;-72
2024/01/01 19:34:12;;;;;;;1.73;1.35;;;;;;;-18.24;78.40;101838.84;10449183;28;20041;-72
2024/01/01 19:39:15;;;;;;;2.38;1.40;;;;;;;-18.30;77.32;101849.59;10448665;28;20068;-72
2024/01/01 19:44:17;;;;;;;2.60;1.73;;;;;;;-18.34;77.66;101842.81;10447126;28;20037;-72
2024/01/01 19:49:19;;;;;;;2.13;1.48;;;;;;;-18.33;77.61;101850.59;10445164;28;20521;-72
2024/01/01 19:54:23;;;;;;;2.78;1.88;;;;;;;-18.36;77.25;101852.50;10445325;28;20524;-71
2024/01/01 19:59:25;;;;;;;3.67;2.15;;;;;;;-18.37;77.30;101845.56;10445253;28;20041;-72
2024/01/01 20:04:29;;;;;;;2.75;1.67;;;;;;;-18.43;77.10;101853.66;10445422;28;20048;-72
2024/01/01 20:09:31;;;;;;;2.47;1.73;;;;;;;-18.48;77.66;101845.16;10444917;28;20045;-71
2024/01/01 20:14:34;;;;;;;3.05;2.05;;;;;;;-18.51;77.81;101842.69;10441839;28;20042;-73
2024/01/01 20:19:36;;;;;;;2.65;1.90;;;;;;;-18.54;77.79;101838.44;10418566;28;20044;-73
2024/01/01 20:24:38;;;;;;;3.08;1.95;;;;;;;-18.53;77.53;101836.69;10434397;28;20037;-74
2024/01/01 20:29:41;;;;;;;2.85;1.63;;;;;;;-18.54;77.60;101840.22;10409743;28;20045;-73
2024/01/01 20:34:43;;;;;;;4.45;1.80;;;;;;;-18.49;78.27;101841.69;10423446;28;20462;-74
2024/01/01 20:39:45;;;;;;;4.57;2.40;;;;;;;-18.48;78.19;101847.78;10432435;28;20064;-73
2024/01/01 20:44:47;;;;;;;2.60;1.80;;;;;;;-18.52;77.97;101846.22;10426843;28;20492;-73
2024/01/01 20:49:51;;;;;;;4.53;2.33;;;;;;;-18.57;77.47;101841.16;10427012;28;20070;-71
2024/01/01 20:54:53;;;;;;;3.42;2.10;;;;;;;-18.52;78.13;101869.78;10423884;28;20590;-71
2024/01/01 20:59:56;;;;;;;3.00;2.00;;;;;;;-18.62;77.54;101871.94;10417789;28;20580;-71
2024/01/01 21:04:59;;;;;;;3.35;1.70;;;;;;;-18.72;77.48;101879.38;10426734;28;20035;-64
2024/01/01 21:10:02;;;;;;;3.10;1.80;;;;;;;-18.79;77.40;101884.91;10427673;28;20038;-66
2024/01/01 21:15:04;;;;;;;3.22;2.10;;;;;;;-18.87;77.67;101887.00;10435877;28;20045;-68
2024/01/01 21:20:08;;;;;;;3.42;2.17;;;;;;;-18.90;78.25;101879.28;10434364;28;20041;-66
2024/01/01 21:25:10;;;;;;;4.85;2.63;;;;;;;-18.99;78.01;101893.56;10441054;28;20048;-67
2024/01/01 21:30:13;;;;;;;3.58;2.35;;;;;;;-18.91;78.18;101894.13;10431221;28;20488;-67
2024/01/01 21:35:16;;;;;;;2.75;1.90;;;;;;;-18.91;77.98;101883.66;10431106;28;20425;-67
2024/01/01 21:40:18;;;;;;;4.40;2.38;;;;;;;-18.95;78.10;101882.06;10434086;28;20029;-66
2024/01/01 21:45:25;;;;;;;5.28;2.45;;;;;;;-18.97;78.40;101899.59;10425910;28;20489;-68
2024/01/01 21:50:27;;;;;;;4.75;2.47;;;;;;;-19.04;78.56;101892.91;10415680;28;20038;-67
2024/01/01 21:55:29;;;;;;;5.53;2.78;;;;;;;-19.16;78.75;101898.63;10427519;28;20050;-69
2024/01/01 22:00:32;;;;;;;4.03;1.70;;;;;;;-19.22;78.80;101879.66;10422888;28;20045;-67
2024/01/01 22:05:34;;;;;;;3.65;2.38;;;;;;;-19.32;78.96;101899.22;10430986;28;20060;-66
2024/01/01 22:10:36;;;;;;;4.97;2.25;;;;;;;-19.41;79.40;101902.19;10435855;28;20116;-67
2024/01/01 22:15:39;;;;;;;3.03;2.10;;;;;;;-19.23;79.61;101901.47;10432603;28;20040;-67
2024/01/01 22:20:41;;;;;;;3.28;2.72;;;;;;;-19.35;79.07;101903.72;10432581;28;20060;-66
2024/01/01 22:25:44;;;;;;;0.43;0.43;;;;;;;-19.37;79.21;101903.78;10440658;28;20042;-68
2024/01/01 22:30:46;;;;;;;0.75;0.75;;;;;;;-19.37;78.58;101906.38;10430787;28;20042;-68
2024/01/01 22:35:50;;;;;;;2.65;1.70;;;;;;;-19.22;79.40;101907.56;10442802;28;20041;-67
2024/01/01 22:40:52;;;;;;;1.58;1.17;;;;;;;-19.23;78.34;101926.78;10446598;28;20048;-67
2024/01/01 22:45:54;;;;;;;1.73;1.00;;;;;;;-19.18;78.64;101913.50;10432003;28;20491;-66
2024/01/01 22:50:57;;;;;;;0.93;0.85;;;;;;;-19.16;78.21;101917.78;10425032;28;20029;-67